Time;durP1;ratioP1;P1;durP2;ratioP2;P2;SDS_P1;SDS_P2;PMS_P1;PMS_P2;Temp;Humidity;BMP_temperature;BMP_pressure;BME280_temperature;BME280_humidity;BME280_pressure;Samples;Min_cycle;Max_cycle;Signal;HPM_P1;HPM_P2
2023/06/17 00:00:09;;;;;;;16.70;15.32;;;14.40;99.90;;;;;;5114684;27;20047;-37
2023/06/17 00:02:35;;;;;;;15.93;14.63;;;14.30;99.90;;;;;;5086938;28;20048;-38
2023/06/17 00:05:04;;;;;;;16.00;14.60;;;14.20;99.90;;;;;;5131138;27;20035;-38
2023/06/17 00:07:30;;;;;;;17.27;15.70;;;14.20;99.90;;;;;;5136359;27;20049;-37
2023/06/17 00:09:56;;;;;;;17.52;15.95;;;14.10;99.90;;;;;;5135827;27;20039;-37
2023/06/17 00:12:24;;;;;;;17.05;15.40;;;14.10;99.90;;;;;;5117327;27;20107;-37
2023/06/17 00:14:50;;;;;;;18.65;16.25;;;14.10;99.90;;;;;;5135568;27;20113;-37
2023/06/17 00:17:17;;;;;;;17.83;16.33;;;14.00;99.90;;;;;;5136265;27;20449;-37
2023/06/17 00:19:43;;;;;;;15.98;14.48;;;14.00;99.90;;;;;;5135447;27;20060;-37
2023/06/17 00:22:09;;;;;;;17.05;15.40;;;14.00;99.90;;;;;;5136417;27;20053;-37
2023/06/17 00:24:35;;;;;;;18.30;16.50;;;14.10;99.90;;;;;;5134563;27;20038;-37
2023/06/17 00:27:01;;;;;;;19.15;17.38;;;14.10;99.90;;;;;;5135985;27;20209;-37
2023/06/17 00:29:26;;;;;;;16.60;15.20;;;14.10;99.90;;;;;;5134819;27;20469;-37
2023/06/17 00:31:52;;;;;;;18.80;16.92;;;14.10;99.90;;;;;;5134864;27;20524;-37
2023/06/17 00:34:18;;;;;;;18.15;16.50;;;14.20;99.90;;;;;;5121914;27;20086;-37
2023/06/17 00:36:43;;;;;;;19.17;17.38;;;14.20;99.90;;;;;;5088226;27;20559;-37
2023/06/17 00:39:09;;;;;;;18.45;16.50;;;14.20;99.90;;;;;;5113214;27;20526;-38
2023/06/17 00:41:35;;;;;;;18.40;16.58;;;14.20;99.90;;;;;;5095995;27;20183;-37
2023/06/17 00:44:01;;;;;;;17.55;15.68;;;14.20;99.90;;;;;;5110184;27;20114;-37
2023/06/17 00:46:36;;;;;;;17.85;16.10;;;14.00;99.90;;;;;;5135457;27;20039;-37
2023/06/17 00:49:02;;;;;;;18.45;16.52;;;14.00;99.90;;;;;;5135283;27;20125;-39
2023/06/17 00:51:28;;;;;;;18.05;16.42;;;14.00;99.90;;;;;;5124698;27;20244;-37
2023/06/17 00:53:54;;;;;;;17.65;15.95;;;13.90;99.90;;;;;;5134463;27;20481;-38
2023/06/17 00:56:20;;;;;;;18.60;16.80;;;13.90;99.90;;;;;;5135413;27;20034;-37
2023/06/17 00:58:47;;;;;;;17.42;15.77;;;13.90;99.90;;;;;;5135353;27;20055;-37
2023/06/17 01:01:13;;;;;;;18.38;16.70;;;13.90;99.90;;;;;;5117395;27;20511;-37
2023/06/17 01:03:39;;;;;;;17.92;16.15;;;13.90;99.90;;;;;;5134990;27;20043;-37
2023/06/17 01:06:14;;;;;;;19.33;17.38;;;13.90;99.90;;;;;;5135653;27;20045;-38
2023/06/17 01:08:45;;;;;;;18.35;16.45;;;13.90;99.90;;;;;;5134269;27;20053;-37
2023/06/17 01:11:13;;;;;;;17.83;16.02;;;13.90;99.90;;;;;;5135257;27;20388;-37
2023/06/17 01:13:43;;;;;;;19.25;17.65;;;13.90;99.90;;;;;;5134078;27;20495;-37
2023/06/17 01:16:09;;;;;;;19.73;17.83;;;13.90;99.90;;;;;;5116121;27;20109;-37
2023/06/17 01:18:36;;;;;;;18.52;16.73;;;13.90;99.90;;;;;;5115469;27;20077;-37
2023/06/17 01:21:04;;;;;;;19.98;18.00;;;13.90;99.90;;;;;;5096039;27;20631;-38
2023/06/17 01:23:35;;;;;;;19.52;17.75;;;13.80;99.90;;;;;;5114618;28;20500;-37
2023/06/17 01:26:01;;;;;;;19.77;18.00;;;13.80;99.90;;;;;;5114485;27;20032;-37
2023/06/17 01:28:29;;;;;;;20.77;18.33;;;13.80;99.90;;;;;;5114103;27;20051;-37
2023/06/17 01:30:56;;;;;;;19.90;17.90;;;13.80;99.90;;;;;;5113990;27;20055;-37
2023/06/17 01:33:23;;;;;;;18.88;17.25;;;13.70;99.90;;;;;;5113937;27;20054;-37
2023/06/17 01:35:58;;;;;;;17.77;15.98;;;13.80;99.90;;;;;;5084768;27;20046;-37
2023/06/17 01:38:46;;;;;;;13.13;11.90;;;13.80;99.90;;;;;;5113961;27;20050;-37
2023/06/17 01:41:26;;;;;;;14.73;13.20;;;13.70;99.90;;;;;;5091501;28;20500;-37
2023/06/17 01:43:54;;;;;;;14.15;12.85;;;13.70;99.90;;;;;;5104086;27;20541;-37
2023/06/17 01:46:20;;;;;;;14.32;13.13;;;13.70;99.90;;;;;;5117337;27;20039;-37
2023/06/17 01:48:46;;;;;;;14.63;13.32;;;13.70;99.90;;;;;;5117387;27;20051;-37
2023/06/17 01:51:12;;;;;;;17.75;16.13;;;13.70;99.90;;;;;;5100014;27;20051;-37
2023/06/17 01:53:38;;;;;;;16.63;15.15;;;13.60;99.90;;;;;;5099294;27;20807;-37
2023/06/17 01:56:04;;;;;;;14.15;12.95;;;13.50;99.90;;;;;;5118518;27;20497;-37
2023/06/17 01:58:29;;;;;;;13.80;12.60;;;13.50;99.90;;;;;;5117251;27;20403;-37
2023/06/17 02:00:55;;;;;;;17.58;15.98;;;13.50;99.90;;;;;;5117608;27;20039;-37
2023/06/17 02:03:21;;;;;;;15.27;13.77;;;13.50;99.90;;;;;;5116591;27;20416;-37
2023/06/17 02:05:47;;;;;;;14.60;13.35;;;13.40;99.90;;;;;;5099023;27;20084;-37
2023/06/17 02:08:14;;;;;;;14.18;13.07;;;13.40;99.90;;;;;;5117529;27;20047;-37
2023/06/17 02:10:40;;;;;;;13.00;11.90;;;13.40;99.90;;;;;;5117869;27;20089;-37
2023/06/17 02:13:08;;;;;;;13.77;12.48;;;13.40;99.90;;;;;;5117609;27;20122;-38
2023/06/17 02:15:34;;;;;;;8.63;7.82;;;13.40;99.90;;;;;;5117037;27;20114;-37
2023/06/17 02:18:00;;;;;;;10.18;9.27;;;13.40;99.90;;;;;;5116514;27;20078;-37
2023/06/17 02:20:26;;;;;;;10.38;9.48;;;13.30;99.90;;;;;;5117173;27;20035;-38
2023/06/17 02:22:53;;;;;;;10.82;9.52;;;13.20;99.90;;;;;;5117338;27;20051;-37
2023/06/17 02:25:19;;;;;;;12.73;11.18;;;13.20;99.90;;;;;;5098319;27;20058;-38
2023/06/17 02:27:45;;;;;;;13.98;12.52;;;13.10;99.90;;;;;;5116841;27;20043;-37
2023/06/17 02:30:12;;;;;;;15.25;13.73;;;13.10;99.90;;;;;;5098238;27;20047;-37
2023/06/17 02:32:37;;;;;;;14.85;13.63;;;13.10;99.90;;;;;;5116278;27;20270;-37
2023/06/17 02:35:03;;;;;;;15.48;14.18;;;13.10;99.90;;;;;;5104314;27;20453;-37
2023/06/17 02:37:29;;;;;;;9.25;8.35;;;13.10;99.90;;;;;;5131177;27;20126;-37
2023/06/17 02:39:55;;;;;;;7.25;5.57;;;13.10;99.90;;;;;;5131907;27;20047;-37
2023/06/17 02:42:24;;;;;;;7.53;7.03;;;13.00;99.90;;;;;;5135031;27;20533;-38
2023/06/17 02:44:50;;;;;;;7.90;7.20;;;12.90;99.90;;;;;;5107962;27;20047;-37
2023/06/17 02:47:15;;;;;;;8.02;7.28;;;13.00;99.90;;;;;;5098393;27;20578;-38
2023/06/17 02:49:41;;;;;;;10.88;9.88;;;13.00;99.90;;;;;;5116563;27;20473;-38
2023/06/17 02:52:07;;;;;;;13.38;12.05;;;13.10;99.90;;;;;;5116860;27;20389;-37
2023/06/17 02:54:32;;;;;;;13.35;12.23;;;13.10;99.90;;;;;;5115823;27;20051;-38
2023/06/17 02:56:58;;;;;;;13.23;11.73;;;13.20;99.90;;;;;;5116629;27;20046;-38
2023/06/17 02:59:24;;;;;;;12.65;11.45;;;13.30;99.90;;;;;;5096244;27;20234;-38
2023/06/17 03:01:51;;;;;;;13.75;10.38;;;13.40;99.90;;;;;;5115751;27;20058;-38
2023/06/17 03:04:20;;;;;;;12.07;10.98;;;13.40;99.90;;;;;;5110340;27;20043;-39
2023/06/17 03:06:45;;;;;;;13.93;12.48;;;13.50;99.90;;;;;;5137565;27;20039;-38
2023/06/17 03:09:11;;;;;;;17.08;12.23;;;13.50;99.90;;;;;;5137525;27;20107;-38
2023/06/17 03:11:37;;;;;;;19.90;16.17;;;13.60;99.90;;;;;;5137020;27;20055;-38
2023/06/17 03:14:03;;;;;;;24.00;19.30;;;13.60;99.90;;;;;;5136067;27;20438;-38
2023/06/17 03:16:33;;;;;;;25.20;18.38;;;13.70;99.90;;;;;;5135831;27;20067;-38
2023/06/17 03:19:00;;;;;;;21.75;17.55;;;13.70;99.90;;;;;;5136613;27;20046;-38
2023/06/17 03:21:29;;;;;;;20.15;17.92;;;13.70;99.90;;;;;;5136881;27;20138;-37
2023/06/17 03:23:58;;;;;;;25.15;19.05;;;13.80;99.90;;;;;;5136402;27;20115;-37
2023/06/17 03:26:24;;;;;;;21.83;18.17;;;13.80;99.90;;;;;;5136726;27;20482;-37
2023/06/17 03:28:50;;;;;;;20.58;18.27;;;13.80;99.90;;;;;;5116756;27;20404;-39
2023/06/17 03:31:20;;;;;;;21.65;18.88;;;13.90;99.90;;;;;;5137205;27;20042;-38
2023/06/17 03:33:48;;;;;;;20.83;18.77;;;14.10;99.90;;;;;;5132835;27;20117;-38
2023/06/17 03:36:13;;;;;;;23.95;21.63;;;14.10;99.90;;;;;;5111600;27;20051;-38
2023/06/17 03:38:39;;;;;;;24.23;21.92;;;14.20;99.90;;;;;;5133951;27;20047;-38
2023/06/17 03:41:05;;;;;;;25.10;22.55;;;14.40;99.90;;;;;;5115821;27;20047;-38
2023/06/17 03:43:31;;;;;;;26.52;21.90;;;14.50;99.90;;;;;;5105999;27;20040;-38
2023/06/17 03:45:57;;;;;;;24.20;21.58;;;14.60;99.90;;;;;;5116153;27;20039;-38
2023/06/17 03:48:23;;;;;;;28.58;23.15;;;14.70;99.90;;;;;;5115330;27;20110;-38
2023/06/17 03:50:49;;;;;;;30.48;24.45;;;14.80;99.90;;;;;;5115633;27;20142;-38
2023/06/17 03:53:15;;;;;;;29.52;24.95;;;14.90;99.90;;;;;;5115482;27;20054;-47
2023/06/17 03:55:41;;;;;;;28.95;26.02;;;14.90;99.90;;;;;;5115215;27;20051;-38
2023/06/17 03:58:07;;;;;;;31.17;26.38;;;15.00;99.90;;;;;;5096404;27;20050;-38
2023/06/17 04:00:32;;;;;;;29.48;26.27;;;15.00;99.90;;;;;;5115503;27;20051;-38
2023/06/17 04:02:59;;;;;;;28.50;25.52;;;15.10;99.90;;;;;;5115159;27;20039;-38
2023/06/17 04:05:33;;;;;;;30.65;27.50;;;15.10;99.90;;;;;;5114728;27;20046;-38
2023/06/17 04:07:59;;;;;;;31.35;27.83;;;15.20;99.90;;;;;;5113869;27;20051;-38
2023/06/17 04:10:26;;;;;;;32.72;29.00;;;15.10;99.90;;;;;;5114968;27;20042;-38
2023/06/17 04:12:51;;;;;;;31.35;28.08;;;15.20;99.90;;;;;;5114615;27;20050;-38
2023/06/17 04:15:17;;;;;;;33.40;29.73;;;15.20;99.90;;;;;;5114779;27;20043;-37
2023/06/17 04:17:43;;;;;;;35.25;29.48;;;15.30;99.90;;;;;;5114783;27;20047;-38
2023/06/17 04:20:12;;;;;;;35.58;32.10;;;15.30;99.90;;;;;;5115499;27;20378;-38
2023/06/17 04:22:39;;;;;;;36.15;32.35;;;15.40;99.90;;;;;;5115096;27;20392;-38
2023/06/17 04:25:07;;;;;;;34.20;30.65;;;15.40;99.90;;;;;;5115268;27;20138;-38
2023/06/17 04:27:32;;;;;;;34.80;29.55;;;15.40;99.90;;;;;;5114897;27;20039;-38
2023/06/17 04:29:59;;;;;;;31.60;27.58;;;15.50;99.90;;;;;;5116255;27;20431;-38
2023/06/17 04:32:26;;;;;;;32.63;29.10;;;15.50;99.90;;;;;;5115672;27;20115;-38
2023/06/17 04:34:52;;;;;;;32.10;25.05;;;15.50;99.90;;;;;;5104506;27;20051;-38
2023/06/17 04:37:18;;;;;;;27.95;25.25;;;15.50;99.90;;;;;;5107724;27;20795;-38
2023/06/17 04:39:44;;;;;;;29.60;24.42;;;15.60;99.90;;;;;;5125653;27;20122;-38
2023/06/17 04:42:10;;;;;;;26.65;23.73;;;15.60;99.90;;;;;;5115621;27;20130;-38
2023/06/17 04:44:39;;;;;;;26.88;24.25;;;15.60;99.90;;;;;;5105691;27;20039;-38
2023/06/17 04:47:11;;;;;;;27.15;24.38;;;15.60;99.90;;;;;;5115691;27;20043;-38
2023/06/17 04:49:41;;;;;;;27.20;24.38;;;15.60;99.90;;;;;;5114628;27;20082;-38
2023/06/17 04:52:13;;;;;;;31.50;25.58;;;15.70;99.90;;;;;;5114575;27;20150;-38
2023/06/17 04:54:42;;;;;;;26.75;23.65;;;15.70;99.90;;;;;;5114004;27;20043;-38
2023/06/17 04:57:07;;;;;;;27.40;24.58;;;15.70;99.90;;;;;;5096146;27;20446;-38
2023/06/17 04:59:33;;;;;;;25.23;22.77;;;15.80;99.90;;;;;;5114791;27;20051;-39
2023/06/17 05:01:59;;;;;;;28.55;24.02;;;15.80;99.90;;;;;;5115355;27;20286;-38
2023/06/17 05:04:25;;;;;;;29.80;25.23;;;15.90;99.90;;;;;;5096165;28;20489;-38
2023/06/17 05:06:51;;;;;;;26.58;23.95;;;15.90;99.90;;;;;;5114951;28;20039;-38
2023/06/17 05:09:16;;;;;;;28.13;25.15;;;16.00;99.90;;;;;;5129231;27;20289;-38
2023/06/17 05:11:42;;;;;;;26.60;23.92;;;16.00;99.90;;;;;;5084089;28;20475;-38
2023/06/17 05:14:08;;;;;;;26.92;24.05;;;16.00;99.90;;;;;;5114298;27;20283;-38
2023/06/17 05:16:34;;;;;;;27.98;25.13;;;16.10;99.90;;;;;;5114691;27;20188;-38
2023/06/17 05:19:00;;;;;;;26.48;23.20;;;16.20;99.90;;;;;;5115958;27;20598;-38
2023/06/17 05:21:26;;;;;;;25.45;22.95;;;16.20;99.90;;;;;;5118415;27;20116;-38
2023/06/17 05:23:52;;;;;;;26.23;22.38;;;16.20;99.90;;;;;;5100249;27;20532;-38
2023/06/17 05:26:17;;;;;;;25.60;22.58;;;16.20;99.90;;;;;;5118531;27;20664;-38
2023/06/17 05:28:49;;;;;;;23.88;21.38;;;16.20;99.90;;;;;;5118648;27;20075;-38
2023/06/17 05:31:15;;;;;;;24.80;22.13;;;16.30;99.90;;;;;;5119494;27;20043;-38
2023/06/17 05:33:41;;;;;;;24.70;22.17;;;16.30;99.90;;;;;;5116998;27;20047;-38
2023/06/17 05:36:06;;;;;;;25.73;21.60;;;16.40;99.90;;;;;;5092774;27;20551;-38
2023/06/17 05:38:32;;;;;;;22.35;19.98;;;16.40;99.90;;;;;;5105738;27;20043;-38
2023/06/17 05:40:58;;;;;;;23.02;20.73;;;16.40;99.90;;;;;;5099494;27;20048;-38
2023/06/17 05:43:27;;;;;;;22.92;20.63;;;16.50;99.90;;;;;;5101642;27;20083;-38
2023/06/17 05:45:53;;;;;;;22.17;19.98;;;16.50;99.90;;;;;;5117845;27;20150;-38
2023/06/17 05:48:18;;;;;;;24.50;22.15;;;16.60;99.90;;;;;;5117558;27;20047;-38
2023/06/17 05:50:44;;;;;;;21.45;19.25;;;16.60;99.90;;;;;;5118200;27;20035;-38
2023/06/17 05:53:10;;;;;;;25.90;20.20;;;16.60;99.90;;;;;;5117793;27;20361;-38
2023/06/17 05:55:36;;;;;;;24.30;20.55;;;16.80;99.90;;;;;;5118385;27;20039;-38
2023/06/17 05:58:02;;;;;;;23.08;19.45;;;16.80;99.90;;;;;;5117741;27;20054;-38
2023/06/17 06:00:27;;;;;;;23.33;19.90;;;16.90;99.90;;;;;;5118336;27;20414;-38
2023/06/17 06:02:53;;;;;;;21.67;19.38;;;17.00;99.90;;;;;;5098819;27;20047;-38
2023/06/17 06:05:19;;;;;;;21.00;18.85;;;17.00;99.90;;;;;;5116802;27;20448;-38
2023/06/17 06:07:44;;;;;;;19.73;17.38;;;17.10;99.90;;;;;;5117549;27;20050;-38
2023/06/17 06:10:11;;;;;;;21.38;19.10;;;17.20;99.90;;;;;;5118132;27;20092;-38
2023/06/17 06:12:38;;;;;;;25.52;20.00;;;17.30;99.90;;;;;;5117509;27;20899;-38
2023/06/17 06:15:05;;;;;;;21.80;19.50;;;17.40;99.90;;;;;;5099482;27;20047;-39
2023/06/17 06:17:30;;;;;;;20.58;18.50;;;17.50;99.90;;;;;;5116789;27;20096;-38
2023/06/17 06:19:56;;;;;;;24.55;19.60;;;17.60;99.90;;;;;;5118045;27;20043;-38
2023/06/17 06:22:22;;;;;;;19.20;17.15;;;17.70;99.90;;;;;;5082025;27;20046;-38
2023/06/17 06:24:48;;;;;;;21.42;19.13;;;17.70;99.90;;;;;;5117256;27;20370;-38
2023/06/17 06:27:14;;;;;;;23.20;18.48;;;17.70;99.90;;;;;;5117361;27;20046;-38
2023/06/17 06:29:40;;;;;;;19.02;17.13;;;17.80;99.90;;;;;;5116724;27;20102;-38
2023/06/17 06:32:06;;;;;;;22.92;18.63;;;17.80;99.90;;;;;;5117528;27;20058;-38
2023/06/17 06:34:32;;;;;;;19.52;17.45;;;17.90;99.90;;;;;;5108865;27;20377;-38
2023/06/17 06:36:58;;;;;;;19.58;17.67;;;17.90;99.90;;;;;;5122978;27;20429;-38
2023/06/17 06:39:25;;;;;;;19.70;17.70;;;18.00;99.90;;;;;;5109253;27;20043;-38
2023/06/17 06:41:51;;;;;;;22.35;20.02;;;18.10;99.90;;;;;;5097436;27;20042;-38
2023/06/17 06:44:17;;;;;;;23.08;20.60;;;18.20;99.90;;;;;;5114713;27;20039;-38
2023/06/17 06:46:43;;;;;;;27.88;19.65;;;18.20;99.90;;;;;;5118205;27;20500;-38
2023/06/17 06:49:09;;;;;;;22.05;19.85;;;18.30;99.90;;;;;;5119945;27;20055;-38
2023/06/17 06:51:36;;;;;;;22.88;20.60;;;18.50;99.90;;;;;;5118059;27;20046;-39
2023/06/17 06:54:02;;;;;;;22.27;18.98;;;18.60;99.90;;;;;;5111520;27;20050;-38
2023/06/17 06:56:28;;;;;;;22.85;19.35;;;18.60;99.90;;;;;;5136873;27;20045;-42
2023/06/17 06:58:56;;;;;;;22.15;19.77;;;18.70;99.90;;;;;;5136300;27;20042;-39
2023/06/17 07:01:26;;;;;;;20.95;18.73;;;18.90;99.90;;;;;;5123960;27;20125;-38
2023/06/17 07:03:52;;;;;;;21.80;19.52;;;19.00;99.90;;;;;;5136279;27;20081;-38
2023/06/17 07:06:18;;;;;;;28.20;20.33;;;19.10;99.90;;;;;;5137178;27;20050;-39
2023/06/17 07:08:44;;;;;;;20.55;18.45;;;19.20;99.90;;;;;;5118805;27;20097;-39
2023/06/17 07:11:10;;;;;;;20.77;18.48;;;19.50;99.90;;;;;;5137533;27;20117;-39
2023/06/17 07:13:36;;;;;;;21.05;18.88;;;20.10;99.90;;;;;;5136296;27;20053;-39
2023/06/17 07:16:02;;;;;;;19.15;17.23;;;21.10;99.90;;;;;;5136481;27;20585;-39
2023/06/17 07:18:27;;;;;;;18.40;16.60;;;21.20;99.90;;;;;;5135748;27;20051;-40
2023/06/17 07:20:53;;;;;;;17.60;15.98;;;21.40;99.90;;;;;;5136643;27;20114;-39
2023/06/17 07:23:19;;;;;;;16.77;15.13;;;21.60;99.90;;;;;;5129164;27;20124;-39
2023/06/17 07:25:44;;;;;;;17.40;15.60;;;21.90;99.90;;;;;;5126935;27;20039;-39
2023/06/17 07:28:11;;;;;;;18.90;16.88;;;22.20;99.90;;;;;;5136278;27;20077;-39
2023/06/17 07:30:36;;;;;;;19.55;14.88;;;22.10;99.90;;;;;;5136385;27;20395;-39
2023/06/17 07:33:03;;;;;;;18.40;16.02;;;22.20;99.90;;;;;;5136332;27;20372;-39
2023/06/17 07:35:29;;;;;;;19.15;17.20;;;22.00;99.90;;;;;;5087389;27;20089;-39
2023/06/17 07:37:54;;;;;;;19.17;15.60;;;22.20;99.90;;;;;;5126778;27;20043;-40
2023/06/17 07:40:20;;;;;;;21.80;15.68;;;22.30;99.90;;;;;;5115059;27;20454;-39
2023/06/17 07:42:46;;;;;;;19.48;14.48;;;22.90;99.90;;;;;;5112179;27;20079;-40
2023/06/17 07:45:11;;;;;;;17.00;14.07;;;23.40;99.90;;;;;;5110404;27;20047;-40
2023/06/17 07:47:37;;;;;;;14.55;12.90;;;23.70;99.90;;;;;;5115594;27;20503;-40
2023/06/17 07:50:04;;;;;;;15.93;14.15;;;24.20;99.90;;;;;;5097538;27;20289;-40
2023/06/17 07:52:32;;;;;;;16.70;13.40;;;24.50;99.90;;;;;;5097213;27;20499;-40
2023/06/17 07:54:58;;;;;;;16.00;12.73;;;24.80;99.90;;;;;;5115552;27;20051;-40
2023/06/17 07:57:23;;;;;;;16.55;12.00;;;25.00;99.90;;;;;;5116147;27;20046;-40
2023/06/17 07:59:49;;;;;;;14.23;12.82;;;25.30;99.90;;;;;;5098179;27;20542;-40
2023/06/17 08:02:16;;;;;;;15.60;13.02;;;25.60;99.90;;;;;;5098402;27;20047;-40
2023/06/17 08:04:42;;;;;;;15.77;13.20;;;25.20;99.90;;;;;;5115992;27;20066;-40
2023/06/17 08:07:08;;;;;;;17.10;13.13;;;25.30;99.90;;;;;;5115693;27;20823;-40
2023/06/17 08:09:33;;;;;;;14.63;13.20;;;25.10;99.90;;;;;;5115171;27;20144;-40
2023/06/17 08:11:59;;;;;;;15.32;13.32;;;24.80;99.90;;;;;;5114757;27;20386;-40
2023/06/17 08:14:25;;;;;;;16.80;13.07;;;24.60;99.90;;;;;;5095598;27;20049;-40
2023/06/17 08:16:50;;;;;;;17.02;11.55;;;24.40;99.90;;;;;;5115087;27;20400;-40
2023/06/17 08:19:16;;;;;;;18.80;13.45;;;24.30;99.90;;;;;;5115021;27;20039;-40
2023/06/17 08:21:44;;;;;;;14.98;13.48;;;24.10;99.90;;;;;;5114930;27;20055;-40
2023/06/17 08:24:36;;;;;;;15.52;13.90;;;24.20;99.90;;;;;;5095910;27;20068;-40
2023/06/17 08:27:02;;;;;;;15.43;13.40;;;24.40;99.90;;;;;;5109903;27;20135;-40
2023/06/17 08:29:27;;;;;;;14.38;12.48;;;24.20;99.90;;;;;;5115413;27;20154;-41
2023/06/17 08:31:53;;;;;;;17.77;14.20;;;24.20;99.90;;;;;;5115912;27;20043;-40
2023/06/17 08:34:24;;;;;;;13.75;12.25;;;24.10;99.90;;;;;;5110300;27;20066;-40
2023/06/17 08:36:54;;;;;;;15.40;12.85;;;24.20;99.90;;;;;;5119662;27;20117;-40
2023/06/17 08:39:21;;;;;;;14.02;12.00;;;24.40;99.90;;;;;;5113365;27;20040;-40
2023/06/17 08:41:47;;;;;;;13.90;12.00;;;24.40;99.90;;;;;;5115581;27;20573;-40
2023/06/17 08:44:13;;;;;;;13.45;11.48;;;24.80;99.90;;;;;;5112017;27;20089;-40
2023/06/17 08:46:41;;;;;;;15.57;11.80;;;25.00;99.90;;;;;;5136330;27;20381;-40
2023/06/17 08:49:08;;;;;;;15.68;14.05;;;24.80;99.90;;;;;;5108836;27;20108;-40
2023/06/17 08:51:35;;;;;;;15.85;12.40;;;24.80;99.90;;;;;;5136037;27;20042;-40
2023/06/17 08:54:01;;;;;;;15.18;12.85;;;24.90;99.90;;;;;;5134867;27;20046;-40
2023/06/17 08:56:27;;;;;;;15.23;12.38;;;24.80;99.90;;;;;;5116499;27;20047;-40
2023/06/17 08:58:54;;;;;;;16.65;12.55;;;24.80;99.90;;;;;;5134991;27;20085;-40
2023/06/17 09:01:25;;;;;;;14.02;12.65;;;24.70;99.90;;;;;;5116948;27;20042;-40
2023/06/17 09:03:52;;;;;;;14.93;12.65;;;24.80;99.90;;;;;;5134202;27;20046;-40
2023/06/17 09:06:27;;;;;;;14.40;10.55;;;24.90;99.90;;;;;;5134165;27;20051;-40
2023/06/17 09:08:54;;;;;;;15.98;12.07;;;24.90;99.90;;;;;;5113828;27;20047;-40
2023/06/17 09:11:28;;;;;;;14.35;12.85;;;24.80;99.90;;;;;;5114149;27;20109;-40
2023/06/17 09:13:56;;;;;;;16.60;13.10;;;24.80;99.90;;;;;;5107224;27;20035;-40
2023/06/17 09:16:28;;;;;;;17.02;10.82;;;24.90;99.90;;;;;;5134996;27;20485;-40
2023/06/17 09:19:02;;;;;;;;;;;25.10;99.90;;;;;;5134682;27;20100;-40
2023/06/17 09:21:28;;;;;;;12.07;10.88;;;24.90;99.90;;;;;;5110049;28;20250;-41
2023/06/17 09:24:05;;;;;;;14.20;11.70;;;25.00;99.90;;;;;;5114129;27;20515;-41
2023/06/17 09:26:38;;;;;;;13.05;11.68;;;25.00;99.90;;;;;;5095928;28;21064;-40
2023/06/17 09:29:06;;;;;;;13.40;11.98;;;25.30;99.90;;;;;;5112969;27;20405;-40
2023/06/17 09:31:33;;;;;;;13.23;11.60;;;25.40;99.90;;;;;;5114045;28;20047;-40
2023/06/17 09:34:03;;;;;;;13.43;10.63;;;25.30;99.90;;;;;;5109480;27;20103;-40
2023/06/17 09:36:29;;;;;;;17.20;11.63;;;25.30;99.90;;;;;;5112653;27;20555;-40
2023/06/17 09:38:55;;;;;;;12.95;9.50;;;25.30;99.90;;;;;;5115879;27;20585;-40
2023/06/17 09:41:23;;;;;;;12.93;11.15;;;25.50;99.90;;;;;;5114088;27;20108;-41
2023/06/17 09:43:52;;;;;;;13.63;11.00;;;25.50;99.90;;;;;;5107196;27;20457;-40
2023/06/17 09:46:24;;;;;;;13.32;11.93;;;25.70;99.90;;;;;;5135228;27;20038;-40
2023/06/17 09:48:51;;;;;;;;;;;25.70;99.90;;;;;;5135201;27;20042;-40
2023/06/17 09:51:21;;;;;;;13.88;11.55;;;25.70;99.90;;;;;;5135851;27;19919;-41
2023/06/17 09:53:50;;;;;;;11.40;10.20;;;25.90;99.90;;;;;;5134572;27;20051;-40
2023/06/17 09:56:18;;;;;;;15.30;11.77;;;26.00;99.90;;;;;;5135207;27;20122;-40
2023/06/17 09:58:44;;;;;;;12.38;10.68;;;26.00;99.90;;;;;;5134547;27;20479;-40
2023/06/17 10:01:11;;;;;;;11.88;10.68;;;26.10;99.90;;;;;;5116404;27;20042;-40
2023/06/17 10:03:39;;;;;;;11.30;10.13;;;26.00;99.90;;;;;;5127882;27;20433;-40
2023/06/17 10:06:13;;;;;;;17.08;11.13;;;25.90;99.90;;;;;;5116176;27;20435;-40
2023/06/17 10:08:49;;;;;;;12.13;10.80;;;26.10;99.90;;;;;;5099197;27;20055;-40
2023/06/17 10:11:18;;;;;;;13.77;11.45;;;26.20;99.90;;;;;;5118292;27;20039;-40
2023/06/17 10:13:49;;;;;;;13.30;10.43;;;26.20;99.90;;;;;;5099306;27;20050;-40
2023/06/17 10:16:18;;;;;;;11.50;10.07;;;26.40;99.90;;;;;;5117722;27;20400;-40
2023/06/17 10:18:48;;;;;;;15.38;11.20;;;26.50;99.90;;;;;;5098446;27;20505;-42
2023/06/17 10:21:15;;;;;;;16.38;11.32;;;26.30;99.90;;;;;;5117951;27;20117;-40
2023/06/17 10:23:43;;;;;;;15.77;10.55;;;26.40;99.90;;;;;;5118702;27;20111;-40
2023/06/17 10:26:11;;;;;;;13.60;10.23;;;26.40;99.90;;;;;;5117497;27;20043;-40
2023/06/17 10:29:06;;;;;;;13.05;10.43;;;26.50;99.90;;;;;;5129055;27;20467;-41
2023/06/17 10:31:37;;;;;;;13.18;10.65;;;26.60;99.90;;;;;;5128232;27;20096;-40
2023/06/17 10:34:04;;;;;;;13.10;10.70;;;26.70;99.90;;;;;;5113124;27;20043;-41
2023/06/17 10:36:33;;;;;;;15.82;10.27;;;26.50;99.90;;;;;;5081309;27;20039;-40
2023/06/17 10:39:17;;;;;;;12.02;10.30;;;26.50;99.90;;;;;;5114537;27;20043;-40
2023/06/17 10:41:45;;;;;;;11.50;8.73;;;26.50;99.90;;;;;;5097660;27;20468;-40
2023/06/17 10:44:20;;;;;;;11.75;8.93;;;26.70;99.90;;;;;;5119801;27;20043;-40
2023/06/17 10:46:51;;;;;;;12.48;8.88;;;26.70;99.90;;;;;;5118816;27;20100;-41
2023/06/17 10:49:18;;;;;;;10.90;8.63;;;26.70;99.90;;;;;;5117227;27;20492;-41
2023/06/17 10:51:51;;;;;;;14.38;8.48;;;26.80;99.40;;;;;;5118534;27;20051;-40
2023/06/17 10:54:30;;;;;;;12.43;9.15;;;26.90;98.90;;;;;;5097271;27;20086;-41
2023/06/17 10:56:56;;;;;;;11.68;8.95;;;27.00;99.30;;;;;;5095624;27;20054;-40
2023/06/17 10:59:31;;;;;;;11.88;10.43;;;27.10;99.20;;;;;;5115984;27;20379;-41
2023/06/17 11:02:02;;;;;;;14.35;9.48;;;27.00;97.80;;;;;;5116231;27;20370;-41
2023/06/17 11:04:31;;;;;;;12.52;10.13;;;26.90;98.50;;;;;;5115800;27;20390;-41
2023/06/17 11:07:02;;;;;;;12.70;9.60;;;26.60;98.50;;;;;;5117264;27;20046;-40
2023/06/17 11:09:29;;;;;;;11.93;9.05;;;26.80;99.10;;;;;;5096652;27;20053;-40
2023/06/17 11:11:55;;;;;;;11.45;8.68;;;27.00;99.80;;;;;;5117552;27;20375;-41
2023/06/17 11:14:22;;;;;;;13.48;9.60;;;27.20;98.90;;;;;;5131462;27;20038;-41
2023/06/17 11:16:56;;;;;;;12.82;9.13;;;27.10;98.50;;;;;;5136523;27;20043;-41
2023/06/17 11:19:23;;;;;;;13.98;9.65;;;27.00;98.00;;;;;;5102041;27;20146;-40
2023/06/17 11:22:03;;;;;;;13.02;8.80;;;27.00;98.60;;;;;;5116979;27;20042;-41
2023/06/17 11:24:32;;;;;;;13.55;8.82;;;27.20;98.00;;;;;;5115181;27;20082;-41
2023/06/17 11:26:58;;;;;;;11.25;9.55;;;27.10;97.70;;;;;;5115381;27;20078;-41
2023/06/17 11:29:28;;;;;;;12.27;9.07;;;27.10;98.10;;;;;;5116020;27;20046;-41
2023/06/17 11:31:57;;;;;;;12.23;8.68;;;27.10;99.40;;;;;;5115761;27;20092;-41
2023/06/17 11:34:23;;;;;;;13.65;9.70;;;27.20;98.70;;;;;;5092598;27;20050;-42
2023/06/17 11:36:53;;;;;;;12.05;9.43;;;27.30;98.60;;;;;;5116461;27;20051;-41
2023/06/17 11:39:32;;;;;;;11.13;8.90;;;27.40;98.50;;;;;;5115100;27;20045;-41
2023/06/17 11:42:01;;;;;;;12.20;10.27;;;27.30;97.50;;;;;;5115647;27;20051;-41
2023/06/17 11:44:32;;;;;;;11.90;9.93;;;27.10;98.30;;;;;;5113266;27;20047;-41
2023/06/17 11:47:08;;;;;;;12.45;9.35;;;27.20;97.80;;;;;;5114280;27;20179;-40
2023/06/17 11:49:35;;;;;;;11.98;8.52;;;27.20;98.30;;;;;;5115091;27;20043;-42
2023/06/17 11:52:09;;;;;;;10.82;9.02;;;27.20;98.10;;;;;;5095839;27;20150;-41
2023/06/17 11:54:51;;;;;;;10.15;7.93;;;27.20;97.40;;;;;;5096253;27;20043;-40
2023/06/17 11:57:25;;;;;;;12.15;8.50;;;27.30;96.30;;;;;;5102924;27;20055;-42
2023/06/17 12:00:13;;;;;;;9.55;7.88;;;27.50;97.10;;;;;;5115222;27;20050;-41
2023/06/17 12:02:41;;;;;;;13.48;8.90;;;27.40;97.00;;;;;;5094152;27;20055;-41
2023/06/17 12:05:08;;;;;;;11.40;8.27;;;27.30;97.70;;;;;;5115645;27;20626;-41
2023/06/17 12:07:41;;;;;;;13.63;9.32;;;27.50;97.00;;;;;;5114769;27;20047;-41
2023/06/17 12:10:07;;;;;;;13.05;8.45;;;27.60;96.90;;;;;;5102180;27;20139;-41
2023/06/17 12:12:36;;;;;;;10.75;9.38;;;27.70;97.20;;;;;;5115151;27;20055;-41
2023/06/17 12:15:07;;;;;;;10.27;9.25;;;27.70;96.70;;;;;;5115453;27;20051;-41
2023/06/17 12:17:46;;;;;;;11.40;9.98;;;27.70;97.70;;;;;;5114642;27;20050;-41
2023/06/17 12:20:16;;;;;;;13.98;9.48;;;27.80;97.30;;;;;;5097018;27;20074;-41
2023/06/17 12:22:48;;;;;;;12.45;9.15;;;27.80;97.40;;;;;;5114271;27;20166;-41
2023/06/17 12:25:14;;;;;;;9.88;8.20;;;27.70;97.80;;;;;;5096888;27;20110;-41
2023/06/17 12:27:40;;;;;;;9.55;8.45;;;27.70;96.60;;;;;;5113119;27;20038;-41
2023/06/17 12:30:08;;;;;;;11.52;9.15;;;27.60;97.60;;;;;;5097937;27;20390;-41
2023/06/17 12:32:34;;;;;;;12.45;8.93;;;27.70;98.20;;;;;;5118930;27;20051;-41